createdAt,value
2022-09-23T00:00:25.377Z,3.60
2022-09-23T00:03:30.024Z,3.53
2022-09-23T00:06:32.800Z,3.88
2022-09-23T00:09:35.397Z,3.40
2022-09-23T00:12:37.842Z,3.50
2022-09-23T00:15:40.477Z,3.17
2022-09-23T00:18:44.162Z,3.38
2022-09-23T00:21:46.596Z,3.20
2022-09-23T00:24:49.405Z,3.80
2022-09-23T00:27:51.949Z,3.10
2022-09-23T00:30:54.724Z,3.20
2022-09-23T00:34:00.428Z,3.60
2022-09-23T00:37:02.982Z,3.63
2022-09-23T00:40:06.073Z,3.53
2022-09-23T00:43:12.869Z,3.53
2022-09-23T00:46:45.056Z,2.97
2022-09-23T00:50:02.125Z,3.28
2022-09-23T00:53:08.089Z,3.65
2022-09-23T00:56:12.459Z,3.00
2022-09-23T00:59:15.050Z,3.00
2022-09-23T01:02:21.153Z,3.40
2022-09-23T01:05:24.233Z,3.40
2022-09-23T01:08:27.831Z,3.00
2022-09-23T01:11:57.550Z,3.20
2022-09-23T01:15:03.504Z,3.25
2022-09-23T01:18:21.356Z,2.90
2022-09-23T01:21:49.053Z,3.10
2022-09-23T01:25:08.878Z,3.10
2022-09-23T01:28:29.711Z,3.10
2022-09-23T01:31:43.274Z,3.05
2022-09-23T01:34:57.636Z,3.03
2022-09-23T01:38:08.961Z,2.90
2022-09-23T01:41:25.075Z,3.10
2022-09-23T01:44:35.018Z,2.90
2022-09-23T01:47:47.225Z,2.78
2022-09-23T01:51:18.928Z,2.85
2022-09-23T01:54:28.638Z,2.97
2022-09-23T01:57:40.635Z,3.22
2022-09-23T02:00:52.386Z,3.00
2022-09-23T02:04:01.148Z,2.85
2022-09-23T02:07:16.465Z,3.10
2022-09-23T02:10:28.442Z,2.63
2022-09-23T02:14:05.950Z,2.90
2022-09-23T02:17:17.330Z,3.50
2022-09-23T02:20:25.062Z,2.80
2022-09-23T02:23:33.139Z,3.05
2022-09-23T02:26:40.487Z,2.53
2022-09-23T02:30:09.024Z,2.75
2022-09-23T02:33:20.464Z,2.80
2022-09-23T02:36:32.388Z,2.90
2022-09-23T02:39:52.323Z,2.80
2022-09-23T02:43:19.942Z,2.67
2022-09-23T02:46:23.464Z,2.55
2022-09-23T02:49:29.492Z,2.67
2022-09-23T02:52:33.010Z,2.88
2022-09-23T02:55:36.007Z,2.70
2022-09-23T02:58:38.644Z,2.90
2022-09-23T03:02:03.664Z,2.65
2022-09-23T03:05:19.137Z,2.70
2022-09-23T03:08:50.859Z,2.50
2022-09-23T03:12:03.581Z,2.80
2022-09-23T03:15:12.375Z,2.63
2022-09-23T03:18:20.833Z,2.70
2022-09-23T03:21:35.648Z,2.70
2022-09-23T03:24:45.377Z,2.80
2022-09-23T03:27:47.959Z,2.50
2022-09-23T03:30:52.683Z,2.75
2022-09-23T03:33:59.048Z,2.70
2022-09-23T03:37:11.775Z,2.70
2022-09-23T03:40:27.141Z,2.65
2022-09-23T03:43:31.167Z,2.70
2022-09-23T03:46:35.451Z,2.90
2022-09-23T03:49:39.915Z,2.67
2022-09-23T03:52:42.530Z,2.50
2022-09-23T03:55:46.705Z,2.67
2022-09-23T03:58:49.272Z,2.67
2022-09-23T04:01:52.409Z,2.63
2022-09-23T04:04:56.165Z,2.45
2022-09-23T04:07:58.905Z,2.60
2022-09-23T04:11:02.475Z,2.30
2022-09-23T04:14:05.706Z,2.80
2022-09-23T04:17:08.855Z,2.60
2022-09-23T04:20:11.363Z,2.88
2022-09-23T04:23:14.084Z,2.87
2022-09-23T04:26:16.652Z,2.50
2022-09-23T04:29:20.019Z,2.28
2022-09-23T04:32:22.597Z,2.60
2022-09-23T04:35:25.100Z,2.72
2022-09-23T04:38:28.063Z,2.33
2022-09-23T04:41:30.629Z,2.58
2022-09-23T04:44:34.949Z,2.50
2022-09-23T04:47:38.774Z,2.45
2022-09-23T04:50:42.263Z,2.20
2022-09-23T04:53:47.347Z,2.30
2022-09-23T04:56:49.828Z,2.47
2022-09-23T04:59:54.975Z,2.40
2022-09-23T05:02:57.509Z,2.42
2022-09-23T05:06:02.177Z,2.70
2022-09-23T05:09:07.589Z,2.70
2022-09-23T05:12:10.224Z,2.65
2022-09-23T05:15:14.916Z,2.30
2022-09-23T05:18:20.749Z,2.55
2022-09-23T05:21:25.663Z,2.33
2022-09-23T05:24:28.335Z,2.43
2022-09-23T05:27:42.359Z,2.72
2022-09-23T05:30:44.854Z,2.97
2022-09-23T05:33:54.012Z,2.60
2022-09-23T05:36:58.800Z,3.00
2022-09-23T05:40:06.236Z,2.90
2022-09-23T05:43:09.951Z,2.97
2022-09-23T05:46:18.022Z,3.53
2022-09-23T05:49:48.638Z,2.88
2022-09-23T05:52:54.007Z,2.65
2022-09-23T05:55:57.908Z,3.33
2022-09-23T05:59:10.004Z,3.03
2022-09-23T06:02:14.798Z,3.28
2022-09-23T06:05:17.622Z,3.00
2022-09-23T06:08:20.451Z,3.60
2022-09-23T06:11:23.246Z,4.63
2022-09-23T06:14:25.757Z,4.10
2022-09-23T06:17:28.198Z,3.80
2022-09-23T06:20:35.586Z,4.13
2022-09-23T06:23:44.517Z,3.20
2022-09-23T06:26:47.980Z,4.03
2022-09-23T06:29:52.274Z,3.58
2022-09-23T06:32:57.293Z,3.83
2022-09-23T06:36:01.879Z,4.30
2022-09-23T06:39:04.661Z,4.00
2022-09-23T06:42:07.828Z,3.90
2022-09-23T06:45:13.203Z,4.15
2022-09-23T06:48:16.252Z,3.80
2022-09-23T06:51:20.452Z,3.80
2022-09-23T06:54:23.163Z,3.95
2022-09-23T06:57:29.743Z,3.63
2022-09-23T07:00:32.365Z,3.70
2022-09-23T07:03:36.345Z,4.20
2022-09-23T07:06:39.247Z,3.95
2022-09-23T07:09:41.942Z,4.00
2022-09-23T07:12:44.586Z,4.17
2022-09-23T07:15:57.203Z,4.00
2022-09-23T07:19:00.048Z,3.85
2022-09-23T07:22:03.509Z,4.40
2022-09-23T07:25:06.521Z,4.00
2022-09-23T07:28:09.207Z,4.33
2022-09-23T07:31:24.015Z,3.92
2022-09-23T07:34:31.315Z,3.80
2022-09-23T07:37:34.340Z,3.83
2022-09-23T07:40:40.177Z,4.45
2022-09-23T07:43:44.365Z,4.20
2022-09-23T07:46:49.797Z,4.03
2022-09-23T07:49:54.284Z,3.80
2022-09-23T07:52:56.995Z,4.53
2022-09-23T07:55:59.899Z,3.92
2022-09-23T07:59:04.742Z,4.13
2022-09-23T08:02:10.371Z,4.53
2022-09-23T08:05:12.932Z,4.10
2022-09-23T08:08:15.897Z,4.35
2022-09-23T08:11:19.057Z,4.15
2022-09-23T08:14:23.187Z,3.87
2022-09-23T08:17:26.006Z,4.47
2022-09-23T08:20:47.422Z,4.10
2022-09-23T08:23:51.894Z,4.15
2022-09-23T08:26:55.106Z,4.00
2022-09-23T08:29:57.948Z,4.00
2022-09-23T08:33:00.848Z,4.10
2022-09-23T08:36:04.271Z,4.05
2022-09-23T08:39:07.020Z,3.85
2022-09-23T08:42:31.287Z,4.00
2022-09-23T08:46:04.527Z,3.87
2022-09-23T08:49:12.472Z,3.85
2022-09-23T08:52:30.008Z,4.05
2022-09-23T08:55:51.040Z,3.95
2022-09-23T08:59:15.045Z,3.83
2022-09-23T09:02:23.155Z,4.00
2022-09-23T09:05:27.756Z,4.30
2022-09-23T09:08:36.607Z,3.80
2022-09-23T09:11:48.550Z,4.40
2022-09-23T09:15:28.130Z,4.03
2022-09-23T09:18:34.355Z,4.57
2022-09-23T09:21:42.626Z,4.53
2022-09-23T09:24:48.779Z,4.28
2022-09-23T09:27:52.791Z,4.28
2022-09-23T09:31:00.140Z,3.83
2022-09-23T09:34:05.699Z,4.60
2022-09-23T09:37:14.796Z,3.95
2022-09-23T09:40:17.785Z,4.07
2022-09-23T09:43:23.419Z,4.47
2022-09-23T09:46:25.977Z,4.80
2022-09-23T09:49:41.314Z,4.00
2022-09-23T09:52:43.896Z,4.00
2022-09-23T09:55:59.795Z,4.07
2022-09-23T09:59:12.442Z,4.28
2022-09-23T10:02:39.748Z,3.90
2022-09-23T10:05:45.952Z,4.00
2022-09-23T10:09:10.867Z,3.90
2022-09-23T10:12:19.704Z,3.90
2022-09-23T10:15:35.037Z,4.07
2022-09-23T10:18:50.314Z,4.05
2022-09-23T10:22:00.364Z,3.93
2022-09-23T10:25:09.987Z,4.00
2022-09-23T10:28:32.199Z,3.90
2022-09-23T10:31:36.408Z,4.63
2022-09-23T10:34:43.720Z,3.95
2022-09-23T10:37:57.813Z,4.43
2022-09-23T10:41:21.136Z,3.83
2022-09-23T10:44:54.368Z,3.97
2022-09-23T10:47:59.719Z,3.83
2022-09-23T10:51:22.682Z,4.00
2022-09-23T10:54:28.000Z,3.60
2022-09-23T10:57:45.951Z,3.92
2022-09-23T11:01:20.601Z,3.75
2022-09-23T11:04:42.008Z,3.90
2022-09-23T11:08:36.506Z,4.15
2022-09-23T11:11:58.802Z,3.80
2022-09-23T11:15:01.254Z,4.00
2022-09-23T11:18:18.066Z,3.78
2022-09-23T11:21:27.816Z,3.70
2022-09-23T11:24:52.253Z,4.10
2022-09-23T11:28:07.103Z,4.03
2022-09-23T11:31:31.551Z,4.07
2022-09-23T11:34:40.179Z,4.10
2022-09-23T11:37:46.687Z,4.13
2022-09-23T11:40:55.464Z,3.53
2022-09-23T11:44:14.862Z,4.10
2022-09-23T11:47:30.399Z,3.78
2022-09-23T11:51:03.858Z,4.00
2022-09-23T11:54:11.556Z,4.00
2022-09-23T11:57:48.280Z,3.97
2022-09-23T12:01:01.109Z,3.97
2022-09-23T12:04:19.999Z,4.28
2022-09-23T12:07:39.966Z,3.78
2022-09-23T12:11:01.694Z,3.97
2022-09-23T12:14:22.660Z,3.45
2022-09-23T12:17:35.243Z,3.70
2022-09-23T12:20:56.614Z,3.90
2022-09-23T12:24:05.068Z,4.10
2022-09-23T12:27:12.244Z,3.70
2022-09-23T12:30:28.685Z,3.97
2022-09-23T12:33:36.952Z,4.03
2022-09-23T12:36:39.760Z,3.60
2022-09-23T12:39:47.097Z,4.30
2022-09-23T12:42:51.115Z,4.30
2022-09-23T12:45:54.023Z,3.67
2022-09-23T12:49:00.524Z,3.57
2022-09-23T12:52:12.188Z,4.18
2022-09-23T12:55:22.099Z,3.47
2022-09-23T12:58:42.887Z,3.83
2022-09-23T13:01:45.549Z,3.88
2022-09-23T13:05:27.005Z,4.20
2022-09-23T13:08:29.748Z,4.25
2022-09-23T13:11:33.313Z,4.13
2022-09-23T13:14:45.546Z,4.03
2022-09-23T13:17:48.241Z,4.22
2022-09-23T13:20:52.879Z,4.27
2022-09-23T13:24:13.771Z,4.57
2022-09-23T13:27:20.651Z,4.07
2022-09-23T13:30:26.840Z,4.35
2022-09-23T13:33:50.546Z,3.83
2022-09-23T13:36:53.705Z,3.73
2022-09-23T13:40:17.588Z,4.38
2022-09-23T13:43:26.889Z,3.92
2022-09-23T13:46:34.354Z,3.75
2022-09-23T13:49:37.255Z,3.50
2022-09-23T13:52:39.742Z,3.90
2022-09-23T13:55:42.409Z,3.65
2022-09-23T13:58:44.885Z,4.65
2022-09-23T14:01:47.460Z,4.30
2022-09-23T14:04:50.875Z,3.92
2022-09-23T14:07:55.092Z,3.63
2022-09-23T14:10:59.499Z,3.92
2022-09-23T14:14:07.750Z,3.60
2022-09-23T14:17:17.964Z,3.65
2022-09-23T14:20:22.211Z,4.47
2022-09-23T14:23:24.730Z,3.60
2022-09-23T14:26:27.329Z,3.58
2022-09-23T14:29:33.076Z,3.70
2022-09-23T14:32:35.743Z,3.65
2022-09-23T14:35:43.027Z,4.13
2022-09-23T14:38:51.547Z,3.87
2022-09-23T14:41:55.578Z,3.60
2022-09-23T14:44:58.648Z,3.78
2022-09-23T14:48:09.676Z,3.58
2022-09-23T14:51:16.963Z,3.38
2022-09-23T14:54:36.067Z,3.93
2022-09-23T14:57:44.151Z,3.60
2022-09-23T15:01:00.561Z,3.83
2022-09-23T15:04:20.145Z,3.35
2022-09-23T15:07:23.896Z,3.63
2022-09-23T15:10:30.296Z,4.00
2022-09-23T15:13:39.216Z,3.80
2022-09-23T15:16:41.890Z,3.88
2022-09-23T15:19:46.697Z,4.20
2022-09-23T15:22:53.737Z,4.10
2022-09-23T15:25:56.221Z,4.30
2022-09-23T15:28:59.061Z,4.13
2022-09-23T15:32:02.018Z,4.40
2022-09-23T15:35:06.025Z,4.10
2022-09-23T15:38:09.758Z,4.40
2022-09-23T15:41:14.313Z,4.80
2022-09-23T15:44:29.485Z,3.83
2022-09-23T15:47:32.062Z,4.00
2022-09-23T15:50:35.931Z,3.88
2022-09-23T15:53:38.420Z,4.55
2022-09-23T15:56:40.915Z,3.70
2022-09-23T15:59:44.112Z,3.90
2022-09-23T16:02:48.834Z,4.20
2022-09-23T16:05:52.338Z,3.70
2022-09-23T16:08:55.580Z,3.92
2022-09-23T16:11:58.060Z,4.43
2022-09-23T16:15:00.850Z,3.92
2022-09-23T16:18:03.836Z,3.78
2022-09-23T16:21:07.757Z,4.18
2022-09-23T16:24:16.930Z,3.95
2022-09-23T16:27:20.153Z,4.10
2022-09-23T16:30:23.685Z,3.92
2022-09-23T16:33:27.741Z,3.92
2022-09-23T16:36:32.567Z,3.97
2022-09-23T16:39:35.058Z,3.60
2022-09-23T16:42:38.424Z,3.93
2022-09-23T16:45:41.226Z,4.10
2022-09-23T16:48:49.740Z,4.25
2022-09-23T16:51:56.322Z,4.20
2022-09-23T16:54:59.044Z,4.20
2022-09-23T16:58:02.464Z,4.00
2022-09-23T17:01:25.241Z,3.60
2022-09-23T17:04:27.988Z,3.70
2022-09-23T17:07:32.242Z,3.78
2022-09-23T17:10:36.007Z,3.65
2022-09-23T17:13:41.148Z,3.73
2022-09-23T17:16:44.110Z,3.95
2022-09-23T17:19:48.391Z,3.50
2022-09-23T17:22:52.992Z,4.30
2022-09-23T17:25:58.314Z,4.00
2022-09-23T17:29:02.206Z,4.30
2022-09-23T17:32:05.741Z,4.00
2022-09-23T17:35:09.956Z,3.67
2022-09-23T17:38:13.475Z,3.67
2022-09-23T17:41:17.333Z,4.30
2022-09-23T17:44:19.872Z,3.90
2022-09-23T17:47:25.908Z,3.88
2022-09-23T17:50:30.695Z,3.90
2022-09-23T17:53:38.842Z,4.05
2022-09-23T17:56:42.704Z,4.38
2022-09-23T17:59:46.425Z,3.73
2022-09-23T18:02:52.279Z,3.88
2022-09-23T18:05:55.751Z,3.88
2022-09-23T18:09:02.055Z,3.88
2022-09-23T18:12:04.693Z,3.78
2022-09-23T18:15:07.472Z,4.53
2022-09-23T18:18:10.117Z,4.40
2022-09-23T18:21:12.896Z,4.00
2022-09-23T18:24:32.412Z,3.67
2022-09-23T18:27:36.128Z,3.75
2022-09-23T18:30:40.230Z,4.17
2022-09-23T18:33:43.269Z,4.32
2022-09-23T18:36:46.370Z,4.07
2022-09-23T18:39:50.211Z,3.80
2022-09-23T18:42:52.754Z,4.10
2022-09-23T18:45:57.042Z,3.73
2022-09-23T18:49:19.491Z,4.00
2022-09-23T18:52:22.013Z,4.45
2022-09-23T18:55:25.986Z,3.70
2022-09-23T18:58:28.514Z,3.75
2022-09-23T19:01:31.201Z,4.00
2022-09-23T19:04:33.763Z,3.92
2022-09-23T19:07:36.267Z,3.83
2022-09-23T19:10:39.442Z,3.47
2022-09-23T19:13:42.059Z,3.90
2022-09-23T19:16:44.623Z,4.00
2022-09-23T19:19:47.087Z,4.25
2022-09-23T19:22:49.696Z,4.60
2022-09-23T19:25:52.271Z,4.97
2022-09-23T19:28:57.166Z,5.05
2022-09-23T19:31:59.847Z,5.43
2022-09-23T19:35:02.442Z,5.03
2022-09-23T19:38:05.043Z,4.45
2022-09-23T19:41:09.149Z,4.57
2022-09-23T19:44:11.924Z,4.95
2022-09-23T19:47:17.997Z,4.87
2022-09-23T19:50:21.847Z,4.95
2022-09-23T19:53:27.971Z,4.28
2022-09-23T19:56:32.038Z,4.50
2022-09-23T19:59:34.766Z,4.43
2022-09-23T20:02:38.203Z,4.40
2022-09-23T20:05:40.965Z,4.13
2022-09-23T20:08:44.419Z,3.90
2022-09-23T20:11:47.278Z,4.32
2022-09-23T20:14:51.882Z,4.47
2022-09-23T20:17:54.714Z,4.73
2022-09-23T20:20:57.481Z,4.30
2022-09-23T20:24:02.196Z,4.43
2022-09-23T20:27:10.424Z,4.45
2022-09-23T20:30:13.067Z,4.90
2022-09-23T20:33:15.727Z,4.63
2022-09-23T20:36:19.169Z,4.07
2022-09-23T20:39:22.167Z,4.57
2022-09-23T20:42:24.776Z,4.47
2022-09-23T20:45:27.295Z,3.92
2022-09-23T20:48:31.014Z,4.27
2022-09-23T20:51:33.710Z,4.50
2022-09-23T20:54:38.890Z,4.35
2022-09-23T20:57:41.642Z,4.25
2022-09-23T21:00:47.248Z,4.32
2022-09-23T21:03:51.439Z,4.57
2022-09-23T21:06:57.526Z,4.03
2022-09-23T21:10:02.640Z,4.97
2022-09-23T21:13:07.005Z,4.00
2022-09-23T21:16:10.904Z,4.63
2022-09-23T21:19:13.334Z,4.27
2022-09-23T21:22:15.930Z,4.35
2022-09-23T21:25:28.080Z,4.47
2022-09-23T21:28:35.921Z,4.18
2022-09-23T21:31:38.893Z,4.30
2022-09-23T21:34:41.514Z,4.30
2022-09-23T21:37:44.018Z,3.95
2022-09-23T21:40:58.371Z,4.38
2022-09-23T21:44:04.622Z,3.97
2022-09-23T21:47:07.322Z,4.70
2022-09-23T21:50:10.027Z,4.03
2022-09-23T21:53:12.994Z,4.40
2022-09-23T21:56:21.366Z,4.07
2022-09-23T21:59:23.923Z,4.40
2022-09-23T22:02:27.592Z,4.10
2022-09-23T22:05:30.040Z,4.10
2022-09-23T22:08:38.247Z,3.83
2022-09-23T22:12:00.366Z,4.20
2022-09-23T22:15:02.985Z,4.05
2022-09-23T22:18:06.039Z,4.20
2022-09-23T22:21:08.663Z,4.27
2022-09-23T22:24:12.193Z,4.38
2022-09-23T22:27:18.361Z,3.90
2022-09-23T22:30:39.458Z,4.05
2022-09-23T22:33:42.248Z,3.70
2022-09-23T22:36:44.698Z,4.33
2022-09-23T22:39:47.406Z,4.30
2022-09-23T22:42:50.161Z,4.03
2022-09-23T22:45:52.851Z,4.30
2022-09-23T22:48:55.893Z,3.90
2022-09-23T22:51:59.561Z,4.23
2022-09-23T22:55:03.637Z,3.88
2022-09-23T22:58:27.578Z,3.88
2022-09-23T23:01:30.585Z,3.97
2022-09-23T23:04:33.949Z,4.25
2022-09-23T23:07:36.656Z,3.83
2022-09-23T23:10:39.440Z,3.90
2022-09-23T23:13:42.569Z,4.30
2022-09-23T23:16:46.318Z,3.65
2022-09-23T23:19:50.677Z,3.78
2022-09-23T23:22:53.269Z,3.70
2022-09-23T23:25:56.083Z,4.07
2022-09-23T23:28:59.423Z,4.05
2022-09-23T23:32:02.192Z,3.80
2022-09-23T23:35:05.321Z,4.07
2022-09-23T23:38:08.020Z,3.37
2022-09-23T23:41:16.549Z,4.13
2022-09-23T23:44:19.071Z,3.75
2022-09-23T23:47:21.778Z,3.50
2022-09-23T23:50:24.221Z,3.60
2022-09-23T23:53:30.630Z,3.83
2022-09-23T23:56:33.235Z,4.00
2022-09-23T23:59:35.799Z,3.58
